Accueil
METAR-TAF:

METAR-TAF

Aéroports :

Aéroport Agen-La Garenne

Agen, France

latitude: 44-11N, longitude: 000-36E, altitude: 61 m

Observation

Le bulletin a été fait il y a 27 minutes, à 20:30 UTC
Vent 2 kt de ouest/nord-ouest
Température 12°C
Humidité 94%
Pression 1021 hPa
Visibilité: 5000 m
brume

METAR: LFBA 212030Z AUTO 29002KT 5000 BR NSC 12/11 Q1021

Heure: 22:57 (20:57 UTC)

Prévision

Le bulletin a été fait il y a 6 heures et 57 minutes, à 14:00 UTC
Prévision valable du 21 à 15 UTC au 21 à 24 UTC
Vent 3 kt de direction variable
Visibilité 10 km ou plus
pas de nuages en-dessous de 1500 mètres et pas de cumulonimbus.
Temporairement
du 21 à 19 UTC au 21 à 24 UTC
Visibilité: 0200 m
brouillard

TAF: LFBA 211400Z 2115/2124 VRB03KT CAVOK TEMPO 2119/2124 0200 FG VV///

Observations et prévisions météorologiques de plus de 4000 aéroports (messages METAR et TAF).

Les stations disponibles sont représentées par des disques jaunes et rouges sur la carte.

Passer la souris dessus pour voir le nom de la station.

Cliquer dessus pour voir les observations et prévisions météorologiques.

Pour changer de carte: cliquez sur les boutons verts avec une croix noire pour zoomer, sur le bouton vert avec un tiret pour effectuer un zoom arrière, ou sur les flèches vertes pour les cartes adjacentes.


METAR-TAF: